Greenway, Virginia
Current Conditions -  °F | °C
As of 10:52 PM on Tuesday 25 Nov 2014 (Local Time) from KIAD Reporting Station
Overcast Overcast  
Wind Chill: 44°   Ceiling: 16000
Heat Index: 44°   Visibility: 10mi
Dew Point: 36°   Wind: 0mph
Humidity: 73%   Direction: NA
Pressure: 30.15"   Gusts: NA
Location:  38.98°N, 77.25°W
Report Text: KIAD 260352Z 00000KT 10SM BKN160 OVC220 07/02 A3015 RMK AO2 SLP211 VIRGA OHD-E-S T00670022
Loading
Personal Weather Stations






























Interactive Weather Map New forecast layout! Learn more

10-Day Weather Forecast

Advertisements
Track Severe Weather on mobile